createdAt,value
2023-03-10T00:02:11.648Z,11.30
2023-03-10T00:23:52.089Z,14.50
2023-03-10T00:28:21.613Z,13.00
2023-03-10T00:51:00.242Z,15.00
2023-03-10T00:55:20.378Z,13.60
2023-03-10T00:59:50.821Z,13.00
2023-03-10T01:04:21.300Z,13.10
2023-03-10T01:26:40.335Z,15.20
2023-03-10T01:30:49.329Z,15.20
2023-03-10T01:53:25.101Z,16.90
2023-03-10T01:57:53.935Z,17.00
2023-03-10T02:02:23.286Z,16.50
2023-03-10T02:06:46.039Z,15.10
2023-03-10T02:28:21.580Z,17.10
2023-03-10T02:32:51.218Z,20.20
2023-03-10T02:37:20.846Z,18.90
2023-03-10T02:41:52.715Z,19.00
2023-03-10T03:03:18.135Z,19.10
2023-03-10T03:07:43.928Z,17.60
2023-03-10T03:12:12.897Z,18.80
2023-03-10T03:16:36.023Z,18.50
2023-03-10T03:21:06.462Z,18.20
2023-03-10T03:25:36.593Z,19.50
2023-03-10T03:55:55.108Z,22.00
2023-03-10T04:00:06.607Z,27.70
2023-03-10T04:04:36.400Z,26.40
2023-03-10T04:21:26.051Z,25.40
2023-03-10T04:25:40.641Z,25.90
2023-03-10T04:30:09.400Z,25.60
2023-03-10T04:34:31.439Z,20.80
2023-03-10T04:38:39.289Z,23.60
2023-03-10T04:43:08.641Z,27.50
2023-03-10T04:47:31.016Z,24.80
2023-03-10T04:51:47.262Z,25.90
2023-03-10T04:56:08.246Z,28.00
2023-03-10T05:21:27.144Z,31.40
2023-03-10T05:25:24.464Z,27.40
2023-03-10T05:29:53.305Z,27.40
2023-03-10T05:33:55.794Z,27.80
2023-03-10T05:38:23.074Z,29.70
2023-03-10T05:42:44.278Z,31.00
2023-03-10T05:46:46.484Z,31.20
2023-03-10T05:50:58.766Z,28.70
2023-03-10T05:54:29.663Z,28.60
2023-03-10T05:57:39.873Z,29.30
2023-03-10T06:01:02.781Z,28.90
2023-03-10T06:04:35.983Z,27.30
2023-03-10T06:07:24.405Z,27.60
2023-03-10T06:10:28.102Z,28.90
2023-03-10T06:14:55.636Z,28.00
2023-03-10T06:18:45.597Z,27.90
2023-03-10T06:23:13.627Z,29.70
2023-03-10T06:27:46.410Z,27.80
2023-03-10T06:32:18.624Z,31.50
2023-03-10T06:57:30.011Z,27.30
2023-03-10T07:00:53.738Z,24.30
2023-03-10T07:05:14.543Z,23.90
2023-03-10T07:08:54.852Z,26.60
2023-03-10T07:12:49.957Z,24.90
2023-03-10T07:16:37.430Z,24.30
2023-03-10T07:20:25.662Z,24.70
2023-03-10T07:24:45.058Z,24.90
2023-03-10T07:28:54.183Z,25.00
2023-03-10T07:32:46.269Z,24.60
2023-03-10T07:37:14.182Z,23.10
2023-03-10T07:41:38.209Z,23.30
2023-03-10T08:11:07.738Z,22.00
2023-03-10T08:15:27.003Z,21.60
2023-03-10T08:19:21.881Z,20.50
2023-03-10T08:22:16.478Z,21.60
2023-03-10T08:25:12.934Z,20.50
2023-03-10T08:28:44.078Z,21.40
2023-03-10T08:31:50.577Z,20.50
2023-03-10T08:35:25.278Z,21.90
2023-03-10T08:39:26.604Z,21.50
2023-03-10T08:42:57.807Z,19.50
2023-03-10T08:45:59.885Z,22.20
2023-03-10T08:56:03.818Z,20.80
2023-03-10T08:59:08.560Z,20.20
2023-03-10T09:02:18.367Z,20.30
2023-03-10T09:05:43.226Z,19.40
2023-03-10T09:10:13.402Z,18.90
2023-03-10T09:14:24.312Z,20.30
2023-03-10T09:18:21.025Z,19.50
2023-03-10T09:22:40.503Z,20.20
2023-03-10T10:10:43.179Z,18.10
2023-03-10T10:28:56.917Z,18.00
2023-03-10T10:33:24.776Z,25.70
2023-03-10T10:38:09.579Z,27.10
2023-03-10T10:42:28.317Z,27.60
2023-03-10T10:46:53.495Z,18.10
2023-03-10T11:17:51.867Z,15.20
2023-03-10T11:22:27.464Z,14.20
2023-03-10T11:27:01.533Z,15.80
2023-03-10T11:31:38.995Z,15.30
2023-03-10T11:36:07.058Z,14.70
2023-03-10T12:02:49.562Z,22.50
2023-03-10T12:07:18.156Z,23.80
2023-03-10T12:30:02.738Z,20.50
2023-03-10T12:34:32.134Z,20.30
2023-03-10T12:39:03.491Z,18.60
2023-03-10T12:43:35.660Z,19.70
2023-03-10T12:48:10.785Z,21.70
2023-03-10T13:29:56.183Z,20.10
2023-03-10T13:34:15.757Z,19.50
2023-03-10T13:38:46.670Z,21.10
2023-03-10T13:43:06.404Z,19.20
2023-03-10T13:47:38.927Z,21.20
2023-03-10T13:52:08.203Z,21.00
2023-03-10T13:56:38.886Z,20.60
2023-03-10T14:31:26.181Z,21.40
2023-03-10T14:35:45.943Z,22.80
2023-03-10T14:40:15.892Z,19.90
2023-03-10T14:44:44.831Z,22.10
2023-03-10T14:49:06.082Z,19.60
2023-03-10T14:53:35.159Z,20.70
2023-03-10T14:57:40.765Z,21.20
2023-03-10T15:19:01.695Z,28.90
2023-03-10T15:23:30.890Z,38.30
2023-03-10T15:27:53.849Z,35.00
2023-03-10T15:32:14.688Z,35.60
2023-03-10T15:40:03.877Z,37.60
2023-03-10T15:44:16.092Z,29.10
2023-03-10T15:48:45.455Z,35.50
2023-03-10T15:52:46.738Z,28.80
2023-03-10T15:57:16.622Z,31.00
2023-03-10T16:01:41.817Z,30.70
2023-03-10T16:33:17.216Z,37.90
2023-03-10T16:37:46.924Z,35.60
2023-03-10T16:42:09.425Z,34.50
2023-03-10T16:46:47.821Z,37.80
2023-03-10T16:51:16.475Z,33.40
2023-03-10T17:17:15.767Z,33.90
2023-03-10T17:21:57.131Z,31.10
2023-03-10T17:43:46.311Z,30.20
2023-03-10T17:47:56.809Z,29.00
2023-03-10T17:52:26.503Z,32.70
2023-03-10T18:01:16.275Z,29.00
2023-03-10T18:18:18.841Z,31.90
2023-03-10T18:22:48.763Z,28.00
2023-03-10T18:27:12.857Z,27.80
2023-03-10T18:31:43.951Z,26.50
2023-03-10T19:22:10.173Z,33.70
2023-03-10T19:26:28.310Z,23.90
2023-03-10T19:30:38.110Z,30.50
2023-03-10T20:04:22.526Z,28.10
2023-03-10T20:08:52.610Z,24.40
2023-03-10T20:13:22.555Z,25.90
2023-03-10T20:17:53.099Z,25.70
2023-03-10T20:39:28.152Z,27.70
2023-03-10T20:43:58.252Z,24.90
2023-03-10T20:48:26.095Z,24.10
2023-03-10T20:52:56.560Z,26.90
2023-03-10T20:57:27.041Z,25.10
2023-03-10T21:23:15.385Z,28.80
2023-03-10T21:27:37.251Z,27.70
2023-03-10T21:31:59.220Z,27.20
2023-03-10T21:36:28.682Z,27.30
2023-03-10T21:58:07.527Z,31.50
2023-03-10T22:02:37.016Z,31.00
2023-03-10T22:07:05.181Z,29.80
2023-03-10T22:11:34.399Z,29.20
2023-03-10T22:16:03.694Z,28.20
2023-03-10T22:28:56.451Z,32.00
2023-03-10T22:33:07.939Z,30.80
2023-03-10T22:37:30.129Z,28.30
2023-03-10T22:41:52.010Z,31.20
2023-03-10T22:46:24.406Z,30.10
2023-03-10T23:05:18.727Z,32.30
2023-03-10T23:09:48.152Z,30.40
2023-03-10T23:14:18.872Z,32.60
2023-03-10T23:35:54.657Z,36.20
2023-03-10T23:40:23.984Z,33.20
2023-03-10T23:44:53.502Z,32.80
2023-03-10T23:49:23.600Z,32.30
